KSCH/SCH METAR and TAF weather

Enter ICAO airport designator
Station Type Date Time Source
KSCH METAR 2021/05/13 01:55 UTC NOAA

KSCH 130155Z 28004KT 15SM SCT085 BKN120 12/01 A3020 RMK LAST


Station Type Date Time Source
KSCH Decoded METAR 2021/05/13 01:55 UTC NOAA

Schenectady Airport, NY, United States (KSCH) 42-51N 073-56W
May 12, 2021 - 09:55 PM EDT / 2021.05.13 0155 UTC
Wind: from the W (280 degrees) at 5 MPH (4 KT):0
Visibility: 15 mile(s):0
Sky conditions: mostly cloudy
Temperature: 53 F (12 C)
Dew Point: 33 F (1 C)
Relative Humidity: 46%
Pressure (altimeter): 30.2 in. Hg (1022 hPa)
ob: KSCH 130155Z 28004KT 15SM SCT085 BKN120 12/01 A3020 RMK LAST
cycle: 2

Station Type Date Time Source
KSCH TAF UTC NOAA

Error!

Example: see airport list